createdAt,value
2019-03-29T01:00:40.480Z,9.87
2019-03-29T01:05:41.785Z,6.90
2019-03-29T01:10:43.116Z,8.63
2019-03-29T01:15:44.432Z,8.87
2019-03-29T01:20:45.774Z,8.63
2019-03-29T01:25:47.090Z,8.80
2019-03-29T02:34:10.207Z,12.37
2019-03-29T02:39:12.256Z,10.10
2019-03-29T02:44:13.580Z,11.13
2019-03-29T02:49:14.895Z,11.73
2019-03-29T02:54:16.209Z,11.60
2019-03-29T02:59:17.497Z,12.13
2019-03-29T04:01:18.324Z,13.13
2019-03-29T04:06:20.353Z,11.83
2019-03-29T04:11:21.686Z,13.03
2019-03-29T04:16:23.010Z,12.47
2019-03-29T04:21:24.371Z,14.93
2019-03-29T04:26:25.721Z,12.77
2019-03-29T05:34:47.249Z,14.50
2019-03-29T05:39:48.608Z,14.97
2019-03-29T05:44:50.010Z,15.37
2019-03-29T05:49:51.298Z,17.03
2019-03-29T05:54:52.649Z,16.00
2019-03-29T05:59:54.715Z,14.87
2019-03-29T07:01:59.175Z,18.00
2019-03-29T07:07:00.453Z,19.93
2019-03-29T07:12:01.797Z,19.13
2019-03-29T07:17:03.122Z,19.60
2019-03-29T07:22:04.398Z,18.20
2019-03-29T07:27:06.461Z,20.43
2019-03-29T08:35:28.149Z,15.37
2019-03-29T08:40:29.455Z,16.07
2019-03-29T08:45:30.772Z,17.53
2019-03-29T08:50:32.064Z,13.43
2019-03-29T08:55:45.110Z,15.70
2019-03-29T09:00:34.681Z,14.53
2019-03-29T10:02:36.473Z,9.83
2019-03-29T10:07:37.765Z,12.47
2019-03-29T10:12:43.682Z,8.70
2019-03-29T10:17:40.474Z,7.90
2019-03-29T10:22:41.836Z,8.87
2019-03-29T10:27:43.097Z,7.13
2019-03-29T11:36:06.448Z,7.93
2019-03-29T11:41:08.468Z,8.37
2019-03-29T11:46:09.745Z,7.73
2019-03-29T11:51:19.192Z,6.60
2019-03-29T11:56:12.357Z,9.77
2019-03-29T13:04:36.321Z,8.27
2019-03-29T13:09:39.775Z,8.77
2019-03-29T13:14:39.657Z,9.67
2019-03-29T13:19:41.680Z,9.33
2019-03-29T13:24:42.992Z,6.67
2019-03-29T13:29:45.094Z,8.43
2019-03-29T14:31:47.869Z,8.17
2019-03-29T14:36:49.162Z,8.27
2019-03-29T14:41:50.518Z,9.23
2019-03-29T14:46:51.941Z,6.93
2019-03-29T14:51:53.227Z,7.57
2019-03-29T14:56:54.533Z,8.67
2019-03-29T16:05:16.414Z,10.90
2019-03-29T16:10:17.769Z,9.87
2019-03-29T16:15:34.950Z,7.87
2019-03-29T16:20:27.500Z,8.37
2019-03-29T16:25:28.869Z,10.77
2019-03-29T16:30:32.842Z,8.60
2019-03-29T16:35:34.832Z,8.60
2019-03-29T16:40:36.213Z,8.73
2019-03-29T16:45:47.867Z,10.27
2019-03-29T16:50:39.007Z,9.33
2019-03-29T16:55:40.366Z,11.50
2019-03-29T17:00:41.822Z,10.23
2019-03-29T17:05:43.347Z,8.70
2019-03-29T17:10:44.840Z,9.80
2019-03-29T17:15:46.280Z,9.00
2019-03-29T17:20:48.607Z,9.87
2019-03-29T17:25:49.900Z,8.57
2019-03-29T17:30:51.284Z,11.00
2019-03-29T17:35:56.445Z,9.63
2019-03-29T17:40:58.032Z,12.33
2019-03-29T17:45:59.612Z,9.70
2019-03-29T17:51:01.081Z,11.93
2019-03-29T17:56:03.356Z,9.93
2019-03-29T18:01:13.422Z,11.40
2019-03-29T18:11:34.962Z,13.53
2019-03-29T18:16:40.759Z,12.03
2019-03-29T18:21:48.439Z,11.20
2019-03-29T18:26:49.845Z,11.23
2019-03-29T18:31:51.206Z,11.23
2019-03-29T18:36:52.517Z,11.47
2019-03-29T18:41:53.921Z,11.57
2019-03-29T18:46:55.305Z,12.97
2019-03-29T18:51:56.794Z,15.50
2019-03-29T18:56:58.126Z,12.80
2019-03-29T19:01:59.778Z,12.20
2019-03-29T19:07:00.893Z,11.60
2019-03-29T19:12:02.998Z,11.93
2019-03-29T19:17:04.412Z,13.23
2019-03-29T19:22:08.078Z,13.23
2019-03-29T19:27:13.079Z,12.20
2019-03-29T19:32:18.601Z,11.77
2019-03-29T19:37:27.207Z,13.47
2019-03-29T19:42:31.517Z,12.33
2019-03-29T19:47:36.405Z,15.10
2019-03-29T19:52:40.097Z,11.50
2019-03-29T19:57:47.413Z,13.33
2019-03-29T20:02:48.583Z,13.40
2019-03-29T20:07:49.899Z,13.00
2019-03-29T20:12:52.819Z,12.50
2019-03-29T20:17:54.911Z,15.33
2019-03-29T20:22:56.990Z,13.93
2019-03-29T20:27:59.034Z,13.60
2019-03-29T20:33:00.459Z,13.27
2019-03-29T20:38:01.774Z,16.07
2019-03-29T20:43:03.109Z,14.77
2019-03-29T20:48:04.486Z,14.37
2019-03-29T20:53:05.808Z,15.23
2019-03-29T20:58:08.013Z,18.90
2019-03-29T21:03:09.483Z,15.93
2019-03-29T21:08:10.825Z,17.80
2019-03-29T21:13:12.144Z,15.40
2019-03-29T21:18:13.492Z,18.87
2019-03-29T21:23:14.822Z,15.20
2019-03-29T21:28:16.273Z,22.63
2019-03-29T21:33:17.614Z,16.30
2019-03-29T21:38:18.951Z,16.53
2019-03-29T21:43:20.300Z,16.87
2019-03-29T21:48:28.710Z,19.90
2019-03-29T21:53:23.633Z,18.70
2019-03-29T21:58:25.062Z,16.93
2019-03-29T22:03:27.149Z,15.20
2019-03-29T22:08:29.086Z,17.43
2019-03-29T22:13:30.479Z,20.30
2019-03-29T22:18:37.802Z,18.93
2019-03-29T22:23:33.385Z,20.93
2019-03-29T22:28:34.810Z,18.73
2019-03-29T22:33:36.219Z,18.33
2019-03-29T22:38:37.654Z,18.40
2019-03-29T22:43:39.062Z,17.23
2019-03-29T22:48:51.571Z,17.53
2019-03-29T22:53:41.873Z,18.97
2019-03-29T22:58:43.270Z,21.03
2019-03-29T23:35:26.509Z,18.93
2019-03-29T23:40:27.785Z,18.77
2019-03-29T23:45:29.083Z,15.10
2019-03-29T23:50:30.401Z,19.00
2019-03-29T23:55:31.736Z,18.10
